Strona główna
METAR-TAF:

METAR-TAF

Lotnisko :

Port lotniczy Frankfurt

Frankfurt, Niemcy

Szerokość geograficzna: 50-03N, Długość geograficzna: 008-36E, wysokość: 111 m

Aktualna obserwacja pogody

Raport powstał 26 minut temu, godzina 02:20 UTC
Wiatr 6 kt od północ
Temperatura 18°C
Wilgotność 77%
Ciśnienie 1016 hPa
Widzialność 10 km lub więcej
Brak chmur poniżej 1500 m i brak chmur cumulonimbus

METAR: EDDF 180220Z 01006KT CAVOK 18/14 Q1016 NOSIG

czas: 04:46 (02:46 UTC)

Prognoza

Raport powstał 3 godziny i 46 minut temu, godzina 23:00 UTC
Prognoza ważna od 18 godzina 00 UTC do 19 godzina 06 UTC
Wiatr 4 kt od północny wschód
Widzialność 10 km lub więcej
Brak chmur poniżej 1500 m i brak chmur cumulonimbus
Stopniowe zmiany
od 18 godzina 08 UTC do 18 godzina 11 UTC
Wiatr 5 kt od południowo-południowy wschód
Stopniowe zmiany
od 18 godzina 19 UTC do 18 godzina 22 UTC
Wiatr 3 kt z kierunków zmiennych

TAF: EDDF 172300Z 1800/1906 05004KT CAVOK BECMG 1808/1811 15005KT BECMG 1819/1822 VRB03KT

Obserwacja i prognoza pogody dla ponad 4000 lotnisk (raport METAR i TAF).

Dostępne stacje oznaczono żółtymi i czerwonymi punktami na mapie.

Najedź kursorem aby zobaczyć nazwę stacji.

Kliknij aby zobaczyć obserwacje i prognozy pogody.

Aby zmienić mapę: kliknij na zielony przycisk z czarnym krzyżykiem, aby powiększyć; na zielony przycisk z myślnikiem, aby pomniejszyć; na zielone strzałki, aby przejść do map sąsiednich.


METAR-TAF: